Time;durP1;ratioP1;P1;durP2;ratioP2;P2;SDS_P1;SDS_P2;PMS_P1;PMS_P2;Temp;Humidity;BMP_temperature;BMP_pressure;BME280_temperature;BME280_humidity;BME280_pressure;Samples;Min_cycle;Max_cycle;Signal;HPM_P1;HPM_P2
2021/12/29 00:00:56;;;;;;;;;;;10.70;99.90;;;;;;5071871;28;19913;-64
2021/12/29 00:03:22;;;;;;;;;;;10.80;99.90;;;;;;5070894;28;20015;-63
2021/12/29 00:05:47;;;;;;;;;;;10.70;99.90;;;;;;5072919;28;20369;-61
2021/12/29 00:08:13;;;;;;;;;;;10.70;99.90;;;;;;5072336;28;20426;-63
2021/12/29 00:10:38;;;;;;;;;;;10.70;99.90;;;;;;5072714;28;19982;-64
2021/12/29 00:13:05;;;;;;;;;;;10.80;99.90;;;;;;5072903;28;19913;-65
2021/12/29 00:15:31;;;;;;;;;;;10.80;99.90;;;;;;5072102;28;19916;-64
2021/12/29 00:17:57;;;;;;;;;;;10.70;99.90;;;;;;5054114;28;19916;-64
2021/12/29 00:20:28;;;;;;;;;;;10.70;99.90;;;;;;5071306;28;19912;-65
2021/12/29 00:22:54;;;;;;;;;;;10.70;99.90;;;;;;5072529;28;20408;-63
2021/12/29 00:25:20;;;;;;;;;;;10.70;99.90;;;;;;5072565;28;19916;-63
2021/12/29 00:27:45;;;;;;;;;;;10.70;99.90;;;;;;5072709;28;19919;-63
2021/12/29 00:30:11;;;;;;;;;;;10.70;99.90;;;;;;5070608;28;20405;-61
2021/12/29 00:32:37;;;;;;;;;;;10.70;99.90;;;;;;5070941;28;19909;-65
2021/12/29 00:35:04;;;;;;;;;;;10.80;99.90;;;;;;5072719;28;19918;-63
2021/12/29 00:37:29;;;;;;;;;;;10.80;99.90;;;;;;5071661;28;19927;-64
2021/12/29 00:39:55;;;;;;;;;;;10.80;99.90;;;;;;5071398;28;19912;-63
2021/12/29 00:42:20;;;;;;;;;;;10.80;99.90;;;;;;5070406;28;19908;-64
2021/12/29 00:44:46;;;;;;;;;;;10.80;99.90;;;;;;5072294;28;19908;-64
2021/12/29 00:47:12;;;;;;;;;;;10.80;99.90;;;;;;5072107;28;19916;-64
2021/12/29 00:49:38;;;;;;;;;;;10.80;99.90;;;;;;5070634;28;19913;-64
2021/12/29 00:52:07;;;;;;;;;;;10.80;99.90;;;;;;5072396;28;20007;-63
2021/12/29 00:54:34;;;;;;;;;;;10.80;99.90;;;;;;5071893;28;19912;-65
2021/12/29 00:57:00;;;;;;;;;;;10.80;99.90;;;;;;5070864;28;20010;-65
2021/12/29 00:59:26;;;;;;;;;;;10.80;99.90;;;;;;5070911;28;19916;-64
2021/12/29 01:01:52;;;;;;;;;;;10.80;99.90;;;;;;5072258;28;20489;-64
2021/12/29 01:04:18;;;;;;;;;;;10.90;99.90;;;;;;5072615;28;19939;-64
2021/12/29 01:06:43;;;;;;;;;;;10.90;99.90;;;;;;5072072;28;19974;-64
2021/12/29 01:09:09;;;;;;;;;;;10.90;99.90;;;;;;5069462;28;19912;-63
2021/12/29 01:11:35;;;;;;;;;;;10.90;99.90;;;;;;5072348;28;19927;-64
2021/12/29 01:14:00;;;;;;;;;;;10.90;99.90;;;;;;5073042;28;19965;-63
2021/12/29 01:19:05;;;;;;;;;;;10.90;99.90;;;;;;5071137;28;19910;-64
2021/12/29 01:21:33;;;;;;;;;;;10.90;99.90;;;;;;5070982;28;20332;-62
2021/12/29 01:23:58;;;;;;;;;;;10.90;99.90;;;;;;5071221;28;19987;-62
2021/12/29 01:26:24;;;;;;;;;;;10.90;99.90;;;;;;5071750;28;20007;-62
2021/12/29 01:28:49;;;;;;;;;;;10.90;99.90;;;;;;5072048;28;19912;-62
2021/12/29 01:31:15;;;;;;;;;;;10.80;99.90;;;;;;5071947;28;19912;-63
2021/12/29 01:33:40;;;;;;;;;;;10.90;99.90;;;;;;5072496;28;19913;-62
2021/12/29 01:36:06;;;;;;;;;;;10.90;99.90;;;;;;5069811;28;19908;-62
2021/12/29 01:38:31;;;;;;;;;;;10.80;99.90;;;;;;5070807;28;20369;-61
2021/12/29 01:41:00;;;;;;;;;;;10.80;99.90;;;;;;5071908;28;19912;-63
2021/12/29 01:43:26;;;;;;;;;;;10.80;99.90;;;;;;5072008;28;19909;-63
2021/12/29 01:45:51;;;;;;;;;;;10.80;99.90;;;;;;5072122;28;19931;-62
2021/12/29 01:48:17;;;;;;;;;;;10.80;99.90;;;;;;5069756;28;20510;-60
2021/12/29 01:50:48;;;;;;;;;;;10.80;99.90;;;;;;5057270;28;19943;-63
2021/12/29 01:53:22;;;;;;;;;;;10.80;99.90;;;;;;5075337;28;20419;-62
2021/12/29 01:55:48;;;;;;;;;;;10.90;99.90;;;;;;5075335;28;19913;-63
2021/12/29 01:58:13;;;;;;;;;;;10.90;99.90;;;;;;5074485;28;19915;-63
2021/12/29 02:00:41;;;;;;;;;;;10.90;99.90;;;;;;5075877;28;19913;-62
2021/12/29 02:03:08;;;;;;;;;;;10.90;99.90;;;;;;5069712;28;19909;-60
2021/12/29 02:05:37;;;;;;;;;;;10.90;99.90;;;;;;5074754;28;20384;-64
2021/12/29 02:08:04;;;;;;;;;;;10.80;99.90;;;;;;5075274;28;20377;-63
2021/12/29 02:10:32;;;;;;;;;;;10.80;99.90;;;;;;5075250;28;19924;-64
2021/12/29 02:13:00;;;;;;;;;;;10.90;99.90;;;;;;5075152;28;19912;-64
2021/12/29 02:15:26;;;;;;;;;;;10.80;99.90;;;;;;5074026;28;19947;-64
2021/12/29 02:17:52;;;;;;;;;;;10.90;99.90;;;;;;5073158;28;20017;-64
2021/12/29 02:20:21;;;;;;;;;;;10.80;99.90;;;;;;5074681;28;19917;-64
2021/12/29 02:22:53;;;;;;;;;;;10.90;99.90;;;;;;5075309;28;19979;-64
2021/12/29 02:27:48;;;;;;;;;;;10.90;99.90;;;;;;5074999;28;19945;-65
2021/12/29 02:30:15;;;;;;;;;;;10.90;99.90;;;;;;5072913;28;19935;-65
2021/12/29 02:32:41;;;;;;;;;;;10.80;99.90;;;;;;5074627;28;20369;-64
2021/12/29 02:35:08;;;;;;;;;;;10.80;99.90;;;;;;5074589;28;20281;-64
2021/12/29 02:37:33;;;;;;;;;;;10.90;99.90;;;;;;5073453;28;19913;-65
2021/12/29 02:39:59;;;;;;;;;;;10.80;99.90;;;;;;5075115;28;19966;-65
2021/12/29 02:42:28;;;;;;;;;;;10.80;99.90;;;;;;5072304;28;19908;-65
2021/12/29 02:44:54;;;;;;;;;;;10.80;99.90;;;;;;5074254;28;19939;-63
2021/12/29 02:47:20;;;;;;;;;;;10.80;99.90;;;;;;5074978;28;19962;-64
2021/12/29 02:49:45;;;;;;;;;;;10.90;99.90;;;;;;5074035;28;19917;-64
2021/12/29 02:52:13;;;;;;;;;;;10.90;99.90;;;;;;5074458;28;20388;-65
2021/12/29 02:54:38;;;;;;;;;;;10.90;99.90;;;;;;5057293;28;19948;-65
2021/12/29 02:57:04;;;;;;;;;;;10.90;99.90;;;;;;5072958;28;20385;-62
2021/12/29 02:59:29;;;;;;;;;;;10.90;99.90;;;;;;5074278;28;19997;-64
2021/12/29 03:01:55;;;;;;;;;;;10.90;99.90;;;;;;5072946;28;20289;-62
2021/12/29 03:04:20;;;;;;;;;;;10.90;99.90;;;;;;5074158;28;19912;-65
2021/12/29 03:06:46;;;;;;;;;;;10.90;99.90;;;;;;5073965;28;19958;-64
2021/12/29 03:09:13;;;;;;;;;;;10.90;99.90;;;;;;5071835;28;20007;-62
2021/12/29 03:11:40;;;;;;;;;;;10.90;99.90;;;;;;5072946;28;20533;-64
2021/12/29 03:14:06;;;;;;;;;;;10.90;99.90;;;;;;5074136;28;19909;-65
2021/12/29 03:16:33;;;;;;;;;;;10.90;99.90;;;;;;5072400;28;20038;-62
2021/12/29 03:18:59;;;;;;;;;;;10.90;99.90;;;;;;5074356;28;19908;-65
2021/12/29 03:21:24;;;;;;;;;;;10.90;99.90;;;;;;5071618;28;19919;-63
2021/12/29 03:23:50;;;;;;;;;;;10.90;99.90;;;;;;5073943;28;19917;-64
2021/12/29 03:26:16;;;;;;;;;;;10.90;99.90;;;;;;5073231;28;20373;-63
2021/12/29 03:28:43;;;;;;;;;;;10.90;99.90;;;;;;5073666;28;19920;-63
2021/12/29 03:31:11;;;;;;;;;;;10.90;99.90;;;;;;5073430;28;19969;-65
2021/12/29 03:33:37;;;;;;;;;;;10.80;99.90;;;;;;5072467;28;19966;-66
2021/12/29 03:36:03;;;;;;;;;;;10.90;99.90;;;;;;5072083;28;20361;-65
2021/12/29 03:38:31;;;;;;;;;;;10.90;99.90;;;;;;5073455;28;19908;-65
2021/12/29 03:40:57;;;;;;;;;;;10.80;99.90;;;;;;5073307;28;19978;-65
2021/12/29 03:43:23;;;;;;;;;;;10.90;99.90;;;;;;5073563;28;20426;-63
2021/12/29 03:45:50;;;;;;;;;;;10.80;99.90;;;;;;5073405;28;19927;-65
2021/12/29 03:48:16;;;;;;;;;;;10.90;99.90;;;;;;5071920;28;19947;-64
2021/12/29 03:50:42;;;;;;;;;;;10.90;99.90;;;;;;5073833;28;20317;-64
2021/12/29 03:53:08;;;;;;;;;;;10.80;99.90;;;;;;5073661;28;20003;-63
2021/12/29 03:55:33;;;;;;;;;;;10.80;99.90;;;;;;5072321;28;19912;-63
2021/12/29 03:57:59;;;;;;;;;;;10.80;99.90;;;;;;5074106;28;20328;-64
2021/12/29 04:00:25;;;;;;;;;;;10.80;99.90;;;;;;5070984;28;20293;-62
2021/12/29 04:02:50;;;;;;;;;;;10.80;99.90;;;;;;5073781;28;19920;-63
2021/12/29 04:05:17;;;;;;;;;;;10.80;99.90;;;;;;5073232;28;20332;-64
2021/12/29 04:07:43;;;;;;;;;;;10.80;99.90;;;;;;5073501;28;19960;-63
2021/12/29 04:10:09;;;;;;;;;;;10.80;99.90;;;;;;5073447;28;19955;-62
2021/12/29 04:12:35;;;;;;;;;;;10.80;99.90;;;;;;5072050;28;19912;-63
2021/12/29 04:15:01;;;;;;;;;;;10.90;99.90;;;;;;5071140;28;19908;-63
2021/12/29 04:17:36;;;;;;;;;;;10.80;99.90;;;;;;5073400;28;19935;-64
2021/12/29 04:22:53;;;;;;;;;;;10.90;99.90;;;;;;5073888;28;20430;-63
2021/12/29 04:25:23;;;;;;;;;;;10.80;99.90;;;;;;5073441;28;19920;-64
2021/12/29 04:27:53;;;;;;;;;;;10.80;99.90;;;;;;5073591;28;19912;-63
2021/12/29 04:30:19;;;;;;;;;;;10.80;99.90;;;;;;5070849;28;19962;-63
2021/12/29 04:32:44;;;;;;;;;;;10.80;99.90;;;;;;5073432;28;20391;-64
2021/12/29 04:35:10;;;;;;;;;;;10.80;99.90;;;;;;5072409;28;19913;-60
2021/12/29 04:37:36;;;;;;;;;;;10.80;99.90;;;;;;5073112;28;19920;-63
2021/12/29 04:40:02;;;;;;;;;;;10.80;99.90;;;;;;5073249;28;19919;-62
2021/12/29 04:42:28;;;;;;;;;;;10.80;99.90;;;;;;5071133;28;19912;-63
2021/12/29 04:44:53;;;;;;;;;;;10.80;99.90;;;;;;5072213;28;19915;-62
2021/12/29 04:47:19;;;;;;;;;;;10.80;99.90;;;;;;5073531;28;19956;-64
2021/12/29 04:49:45;;;;;;;;;;;10.80;99.90;;;;;;5073101;28;20510;-63
2021/12/29 04:52:11;;;;;;;;;;;10.80;99.90;;;;;;5071735;28;19920;-63
2021/12/29 04:54:38;;;;;;;;;;;10.80;99.90;;;;;;5072466;28;19927;-63
2021/12/29 04:57:03;;;;;;;;;;;10.80;99.90;;;;;;5071394;28;19924;-63
2021/12/29 04:59:29;;;;;;;;;;;10.70;99.90;;;;;;5072569;28;19920;-63
2021/12/29 05:01:55;;;;;;;;;;;10.70;99.90;;;;;;5072975;28;19909;-64
2021/12/29 05:04:23;;;;;;;;;;;10.70;99.90;;;;;;5073047;28;19913;-63
2021/12/29 05:09:33;;;;;;;;;;;10.70;99.90;;;;;;5071950;28;19926;-64
2021/12/29 05:12:01;;;;;;;;;;;10.70;99.90;;;;;;5071934;28;20289;-64
2021/12/29 05:14:27;;;;;;;;;;;10.70;99.90;;;;;;5071488;28;20017;-64
2021/12/29 05:16:52;;;;;;;;;;;10.70;99.90;;;;;;5072746;28;20393;-63
2021/12/29 05:19:20;;;;;;;;;;;10.70;99.90;;;;;;5071776;28;20603;-63
2021/12/29 05:21:45;;;;;;;;;;;10.60;99.90;;;;;;5071514;28;19956;-64
2021/12/29 05:24:11;;;;;;;;;;;10.60;99.90;;;;;;5070903;28;19962;-62
2021/12/29 05:26:36;;;;;;;;;;;10.60;99.90;;;;;;5076917;28;19916;-64
2021/12/29 05:29:02;;;;;;;;;;;10.70;99.90;;;;;;5076441;28;19927;-62
2021/12/29 05:31:28;;;;;;;;;;;10.70;99.90;;;;;;5075041;28;19912;-63
2021/12/29 05:33:54;;;;;;;;;;;10.70;99.90;;;;;;5076482;28;19999;-62
2021/12/29 05:36:20;;;;;;;;;;;10.70;99.90;;;;;;5074142;28;19919;-63
2021/12/29 05:38:45;;;;;;;;;;;10.70;99.90;;;;;;5076333;28;19998;-62
2021/12/29 05:41:11;;;;;;;;;;;10.60;99.90;;;;;;5077101;28;19912;-61
2021/12/29 05:43:36;;;;;;;;;;;10.60;99.90;;;;;;5075719;28;20502;-63
2021/12/29 05:46:02;;;;;;;;;;;10.60;99.90;;;;;;5076246;28;19965;-62
2021/12/29 05:48:27;;;;;;;;;;;10.60;99.90;;;;;;5074015;28;20003;-63
2021/12/29 05:50:53;;;;;;;;;;;10.70;99.90;;;;;;5075562;28;20281;-63
2021/12/29 05:53:18;;;;;;;;;;;10.60;99.90;;;;;;5074856;28;19913;-62
2021/12/29 05:55:44;;;;;;;;;;;10.70;99.90;;;;;;5075489;28;19959;-63
2021/12/29 05:58:10;;;;;;;;;;;10.60;99.90;;;;;;5057217;28;19912;-64
2021/12/29 06:00:37;;;;;;;;;;;10.60;99.90;;;;;;5074699;28;20483;-64
2021/12/29 06:03:03;;;;;;;;;;;10.60;99.90;;;;;;5073887;28;19955;-64
2021/12/29 06:05:28;;;;;;;;;;;10.60;99.90;;;;;;5075109;28;19956;-62
2021/12/29 06:07:54;;;;;;;;;;;10.60;99.90;;;;;;5075407;28;20754;-63
2021/12/29 06:10:20;;;;;;;;;;;10.60;99.90;;;;;;5073764;28;20342;-63
2021/12/29 06:12:46;;;;;;;;;;;10.60;99.90;;;;;;5075063;28;19927;-64
2021/12/29 06:15:11;;;;;;;;;;;10.60;99.90;;;;;;5073357;28;19908;-62
2021/12/29 06:17:38;;;;;;;;;;;10.60;99.90;;;;;;5075551;28;20311;-63
2021/12/29 06:20:04;;;;;;;;;;;10.60;99.90;;;;;;5074309;28;19935;-64
2021/12/29 06:22:29;;;;;;;;;;;10.60;99.90;;;;;;5071037;28;19912;-63
2021/12/29 06:24:56;;;;;;;;;;;10.60;99.90;;;;;;5031742;28;19978;-62
2021/12/29 06:27:22;;;;;;;;;;;10.60;99.90;;;;;;5070563;28;20386;-61
2021/12/29 06:29:48;;;;;;;;;;;10.50;99.90;;;;;;5070638;28;19970;-63
2021/12/29 06:32:14;;;;;;;;;;;10.60;99.90;;;;;;5071484;28;19916;-62
2021/12/29 06:34:39;;;;;;;;;;;10.60;99.90;;;;;;5070427;28;19919;-63
2021/12/29 06:37:08;;;;;;;;;;;10.60;99.90;;;;;;5070483;28;19916;-64
2021/12/29 06:39:38;;;;;;;;;;;10.60;99.90;;;;;;5073424;28;19920;-64
2021/12/29 06:42:03;;;;;;;;;;;10.60;99.90;;;;;;5073038;28;19965;-72
2021/12/29 06:44:29;;;;;;;;;;;10.60;99.90;;;;;;5074299;28;19914;-71
2021/12/29 06:46:55;;;;;;;;;;;10.60;99.90;;;;;;5072648;28;20012;-64
2021/12/29 06:49:21;;;;;;;;;;;10.70;99.90;;;;;;5073536;28;19919;-65
2021/12/29 06:51:46;;;;;;;;;;;10.60;99.90;;;;;;5074438;28;20014;-66
2021/12/29 06:54:11;;;;;;;;;;;10.70;99.90;;;;;;5071577;28;19913;-64
2021/12/29 06:56:37;;;;;;;;;;;10.70;99.90;;;;;;5075096;28;19934;-65
2021/12/29 06:59:03;;;;;;;;;;;10.70;99.90;;;;;;5055849;28;19920;-66
2021/12/29 07:01:28;;;;;;;;;;;10.70;99.90;;;;;;5074485;28;19912;-64
2021/12/29 07:03:54;;;;;;;;;;;10.70;99.90;;;;;;5069680;28;19916;-65
2021/12/29 07:06:19;;;;;;;;;;;10.70;99.90;;;;;;5067369;28;19921;-65
2021/12/29 07:08:45;;;;;;;;;;;10.70;99.90;;;;;;5069728;28;19913;-66
2021/12/29 07:11:10;;;;;;;;;;;10.70;99.90;;;;;;5067459;28;19960;-65
2021/12/29 07:13:36;;;;;;;;;;;10.70;99.90;;;;;;5069344;28;19912;-64
2021/12/29 07:16:02;;;;;;;;;;;10.70;99.90;;;;;;5069646;28;20504;-65
2021/12/29 07:18:27;;;;;;;;;;;10.80;99.90;;;;;;5069678;28;19916;-65
2021/12/29 07:20:53;;;;;;;;;;;10.70;99.90;;;;;;5069483;28;19916;-64
2021/12/29 07:23:18;;;;;;;;;;;10.70;99.90;;;;;;5069033;28;19912;-64
2021/12/29 07:25:44;;;;;;;;;;;10.70;99.90;;;;;;5068431;28;20015;-66
2021/12/29 07:28:09;;;;;;;;;;;10.70;99.90;;;;;;5069602;28;20447;-65
2021/12/29 07:30:35;;;;;;;;;;;10.80;99.90;;;;;;5068740;28;19948;-65
2021/12/29 07:33:01;;;;;;;;;;;10.70;99.90;;;;;;5068952;28;19913;-66
2021/12/29 07:35:27;;;;;;;;;;;10.80;99.90;;;;;;5068678;28;19923;-65
2021/12/29 07:37:52;;;;;;;;;;;10.80;99.90;;;;;;5068725;28;20011;-65
2021/12/29 07:40:18;;;;;;;;;;;10.80;99.90;;;;;;5067737;28;19912;-66
2021/12/29 07:42:44;;;;;;;;;;;10.70;99.90;;;;;;5067730;28;19955;-62
2021/12/29 07:45:11;;;;;;;;;;;10.80;99.90;;;;;;5069570;28;19921;-64
2021/12/29 07:47:40;;;;;;;;;;;10.80;99.90;;;;;;5068134;28;19919;-65
2021/12/29 07:50:06;;;;;;;;;;;10.90;99.90;;;;;;5041163;28;19935;-64
2021/12/29 07:52:31;;;;;;;;;;;10.80;99.90;;;;;;5068002;28;19920;-65
2021/12/29 07:54:57;;;;;;;;;;;10.80;99.90;;;;;;5068965;28;19912;-65
2021/12/29 07:57:22;;;;;;;;;;;10.80;99.90;;;;;;5068216;28;19959;-66
2021/12/29 07:59:48;;;;;;;;;;;10.80;99.90;;;;;;5069135;28;20011;-64
2021/12/29 08:02:17;;;;;;;;;;;10.80;99.90;;;;;;5040546;28;20326;-64
2021/12/29 08:04:43;;;;;;;;;;;10.80;99.90;;;;;;5068731;28;20314;-65
2021/12/29 08:07:09;;;;;;;;;;;10.80;99.90;;;;;;5068516;28;19924;-63
2021/12/29 08:09:34;;;;;;;;;;;10.80;99.90;;;;;;5068229;28;19921;-65
2021/12/29 08:12:00;;;;;;;;;;;10.90;99.90;;;;;;5069139;28;20339;-64
2021/12/29 08:14:25;;;;;;;;;;;10.90;99.90;;;;;;5068632;28;19920;-63
2021/12/29 08:16:51;;;;;;;;;;;10.80;99.90;;;;;;5068805;28;20046;-65
2021/12/29 08:19:16;;;;;;;;;;;10.90;99.90;;;;;;5068347;28;20273;-65
2021/12/29 08:21:42;;;;;;;;;;;10.90;99.90;;;;;;5067623;28;20035;-64
2021/12/29 08:24:07;;;;;;;;;;;10.90;99.90;;;;;;5067888;28;19935;-65
2021/12/29 08:26:33;;;;;;;;;;;11.00;99.90;;;;;;5067850;28;20009;-63
2021/12/29 08:29:01;;;;;;;;;;;10.90;99.90;;;;;;5068087;28;20000;-65
2021/12/29 08:31:26;;;;;;;;;;;11.00;99.90;;;;;;5067685;28;20016;-65
2021/12/29 08:33:52;;;;;;;;;;;11.00;99.90;;;;;;5068374;28;20419;-65
2021/12/29 08:36:18;;;;;;;;;;;11.00;99.90;;;;;;5067851;28;19916;-65
2021/12/29 08:38:43;;;;;;;;;;;11.00;99.90;;;;;;5068253;28;20019;-67
2021/12/29 08:41:10;;;;;;;;;;;11.00;99.90;;;;;;5068619;28;19956;-65
2021/12/29 08:43:36;;;;;;;;;;;11.10;99.90;;;;;;5068051;28;20297;-64
2021/12/29 08:46:01;;;;;;;;;;;11.10;99.90;;;;;;5036660;28;19921;-65
2021/12/29 08:48:27;;;;;;;;;;;11.10;99.90;;;;;;5067880;28;19987;-64
2021/12/29 08:50:54;;;;;;;;;;;11.10;99.90;;;;;;5068556;28;19924;-65
2021/12/29 08:53:19;;;;;;;;;;;11.10;99.90;;;;;;5068471;28;20033;-63
2021/12/29 08:55:48;;;;;;;;;;;11.10;99.90;;;;;;5067786;28;20041;-62
2021/12/29 08:58:16;;;;;;;;;;;11.10;99.90;;;;;;5068499;28;20014;-65
2021/12/29 09:00:42;;;;;;;;;;;11.20;99.90;;;;;;5071061;28;19920;-64
2021/12/29 09:03:08;;;;;;;;;;;11.20;99.90;;;;;;5073046;28;19912;-66
2021/12/29 09:05:33;;;;;;;;;;;11.20;99.90;;;;;;5071717;28;19996;-64
2021/12/29 09:07:59;;;;;;;;;;;11.30;99.90;;;;;;5072039;28;19923;-64
2021/12/29 09:10:24;;;;;;;;;;;11.30;99.90;;;;;;5072081;28;19920;-64
2021/12/29 09:12:51;;;;;;;;;;;11.30;99.90;;;;;;5072295;28;20320;-63
2021/12/29 09:15:18;;;;;;;;;;;11.30;99.90;;;;;;5072266;28;19912;-66
2021/12/29 09:17:44;;;;;;;;;;;11.40;99.90;;;;;;5072674;28;19924;-63
2021/12/29 09:20:15;;;;;;;;;;;11.40;99.90;;;;;;5071663;28;19966;-65
2021/12/29 09:22:41;;;;;;;;;;;11.50;99.90;;;;;;5071049;28;19913;-64
2021/12/29 09:25:07;;;;;;;;;;;11.50;99.90;;;;;;5072078;28;19913;-65
2021/12/29 09:27:32;;;;;;;;;;;11.60;99.90;;;;;;5070888;28;19924;-66
2021/12/29 09:29:58;;;;;;;;;;;11.70;99.90;;;;;;5072701;28;19934;-63
2021/12/29 09:32:24;;;;;;;;;;;11.60;99.90;;;;;;5071398;28;19924;-65
2021/12/29 09:34:50;;;;;;;;;;;11.70;99.90;;;;;;5071026;28;19913;-64
2021/12/29 09:37:15;;;;;;;;;;;11.80;99.90;;;;;;5072079;28;19912;-65
2021/12/29 09:39:41;;;;;;;;;;;11.80;99.90;;;;;;5071188;28;19967;-64
2021/12/29 09:42:07;;;;;;;;;;;11.80;99.90;;;;;;5072488;28;20392;-66
2021/12/29 09:44:32;;;;;;;;;;;11.90;99.90;;;;;;5071262;28;19928;-64
2021/12/29 09:46:58;;;;;;;;;;;11.90;99.90;;;;;;5052694;28;19984;-65
2021/12/29 09:49:24;;;;;;;;;;;12.00;99.90;;;;;;5069790;28;19916;-65
2021/12/29 09:51:50;;;;;;;;;;;12.10;99.90;;;;;;5070763;28;19916;-63
2021/12/29 09:54:15;;;;;;;;;;;12.20;99.90;;;;;;5070751;28;20371;-65
2021/12/29 09:56:41;;;;;;;;;;;12.20;99.90;;;;;;5052623;28;19960;-63
2021/12/29 09:59:06;;;;;;;;;;;12.30;99.90;;;;;;5070345;28;19935;-64
2021/12/29 10:01:32;;;;;;;;;;;12.30;99.90;;;;;;5070269;28;19920;-64
2021/12/29 10:03:58;;;;;;;;;;;12.40;99.90;;;;;;5070261;28;20518;-65
2021/12/29 10:06:24;;;;;;;;;;;12.50;99.90;;;;;;5070582;28;19932;-65
2021/12/29 10:08:49;;;;;;;;;;;12.50;99.90;;;;;;5071374;28;19916;-65
2021/12/29 10:11:18;;;;;;;;;;;12.60;99.90;;;;;;5069528;28;20046;-65
2021/12/29 10:13:45;;;;;;;;;;;12.60;99.90;;;;;;5070208;28;19920;-65
2021/12/29 10:16:13;;;;;;;;;;;12.70;99.90;;;;;;5066707;28;19924;-65
2021/12/29 10:18:41;;;;;;;;;;;12.70;99.90;;;;;;5069695;28;19920;-64
2021/12/29 10:21:10;;;;;;;;;;;12.80;99.90;;;;;;5070687;28;19916;-65
2021/12/29 10:23:38;;;;;;;;;;;12.80;99.90;;;;;;5069695;28;20885;-65
2021/12/29 10:26:11;;;;;;;;;;;12.80;99.90;;;;;;5069925;28;19924;-65
2021/12/29 10:28:39;;;;;;;;;;;12.90;99.90;;;;;;5069917;28;19960;-65
2021/12/29 10:31:04;;;;;;;;;;;12.90;99.90;;;;;;5070032;28;20389;-64
2021/12/29 10:33:43;;;;;;;;;;;12.90;99.90;;;;;;5069838;28;19923;-64
2021/12/29 10:36:18;;;;;;;;;;;12.90;99.90;;;;;;5070622;28;20327;-65
2021/12/29 10:38:45;;;;;;;;;;;13.00;99.90;;;;;;5070668;28;20414;-65
2021/12/29 10:41:11;;;;;;;;;;;13.00;99.90;;;;;;5066091;28;19956;-63
2021/12/29 10:43:37;;;;;;;;;;;13.10;99.90;;;;;;5069660;28;19955;-64
2021/12/29 10:46:03;;;;;;;;;;;13.30;99.90;;;;;;5069688;28;19951;-66
2021/12/29 10:48:30;;;;;;;;;;;13.30;99.90;;;;;;5069250;28;20183;-64
2021/12/29 10:51:00;;;;;;;;;;;13.40;99.90;;;;;;5085657;28;19989;-66
2021/12/29 10:53:26;;;;;;;;;;;13.50;99.90;;;;;;5069374;28;19917;-65
2021/12/29 10:55:51;;;;;;;;;;;13.50;99.90;;;;;;5068659;28;19913;-65
2021/12/29 10:58:19;;;;;;;;;;;13.60;99.90;;;;;;5068745;28;19917;-65
2021/12/29 11:00:46;;;;;;;;;;;13.60;99.90;;;;;;5069283;28;20554;-66
2021/12/29 11:03:13;;;;;;;;;;;13.60;99.90;;;;;;5070388;28;19920;-65
2021/12/29 11:05:42;;;;;;;;;;;13.70;99.90;;;;;;5070063;28;19921;-65
2021/12/29 11:08:09;;;;;;;;;;;13.70;99.90;;;;;;5069889;28;19995;-65
2021/12/29 11:10:35;;;;;;;;;;;13.70;99.90;;;;;;5069004;28;19970;-65
2021/12/29 11:13:01;;;;;;;;;;;13.80;99.90;;;;;;5069896;28;19943;-65
2021/12/29 11:15:31;;;;;;;;;;;13.90;99.90;;;;;;5068952;28;19920;-63
2021/12/29 11:18:01;;;;;;;;;;;13.90;99.90;;;;;;5069991;28;19912;-65
2021/12/29 11:20:27;;;;;;;;;;;13.90;99.90;;;;;;5068635;28;19912;-65
2021/12/29 11:23:08;;;;;;;;;;;14.00;99.90;;;;;;5067872;28;20293;-66
2021/12/29 11:25:33;;;;;;;;;;;14.10;99.90;;;;;;5069006;28;20018;-66
2021/12/29 11:28:00;;;;;;;;;;;14.20;99.90;;;;;;5069562;28;20383;-66
2021/12/29 11:30:26;;;;;;;;;;;14.30;99.90;;;;;;5068666;28;20621;-65
2021/12/29 11:32:52;;;;;;;;;;;14.30;99.90;;;;;;5069316;28;19912;-66
2021/12/29 11:35:23;;;;;;;;;;;14.30;99.90;;;;;;5068613;28;19912;-65
2021/12/29 11:37:53;;;;;;;;;;;14.30;99.90;;;;;;5068379;28;19923;-65
2021/12/29 11:40:20;;;;;;;;;;;14.30;99.90;;;;;;5068750;28;19919;-65
2021/12/29 11:42:47;;;;;;;;;;;14.40;99.90;;;;;;5068014;28;19918;-66
2021/12/29 11:45:13;;;;;;;;;;;14.50;99.90;;;;;;5069265;28;20437;-65
2021/12/29 11:47:41;;;;;;;;;;;14.50;99.90;;;;;;5067853;28;20049;-65
2021/12/29 11:50:08;;;;;;;;;;;14.50;99.90;;;;;;5068635;28;19916;-66
2021/12/29 11:52:52;;;;;;;;;;;14.50;99.90;;;;;;5067973;28;19924;-66
2021/12/29 11:55:24;;;;;;;;;;;14.60;99.90;;;;;;5068139;28;19918;-65
2021/12/29 11:57:50;;;;;;;;;;;14.70;99.90;;;;;;5067856;28;20396;-65
2021/12/29 12:00:17;;;;;;;;;;;14.70;99.90;;;;;;5068482;28;19912;-66
2021/12/29 12:02:44;;;;;;;;;;;14.80;99.90;;;;;;5068871;28;19918;-66
2021/12/29 12:05:11;;;;;;;;;;;14.80;99.90;;;;;;5064407;28;20423;-66
2021/12/29 12:07:38;;;;;;;;;;;14.70;99.90;;;;;;5067940;28;19978;-63
2021/12/29 12:10:09;;;;;;;;;;;14.80;99.90;;;;;;5068289;28;19921;-66
2021/12/29 12:12:36;;;;;;;;;;;14.80;99.90;;;;;;5067819;28;19920;-66
2021/12/29 12:15:03;;;;;;;;;;;14.80;99.90;;;;;;5068972;28;19974;-67
2021/12/29 12:17:28;;;;;;;;;;;14.80;99.90;;;;;;5067509;28;19917;-66
2021/12/29 12:20:05;;;;;;;;;;;14.80;99.90;;;;;;5066017;28;19978;-65
2021/12/29 12:23:00;;;;;;;;;;;14.80;99.90;;;;;;5068301;28;20339;-66
2021/12/29 12:25:27;;;;;;;;;;;14.80;99.90;;;;;;5048761;28;19913;-64
2021/12/29 12:27:56;;;;;;;;;;;14.80;99.90;;;;;;5067885;28;19923;-65
2021/12/29 12:30:23;;;;;;;;;;;14.80;99.90;;;;;;5068583;28;19918;-66
2021/12/29 12:32:49;;;;;;;;;;;14.90;99.90;;;;;;5044927;28;19916;-66
2021/12/29 12:35:26;;;;;;;;;;;14.90;99.90;;;;;;5067626;28;19919;-66
2021/12/29 12:37:52;;;;;;;;;;;15.00;99.90;;;;;;5067089;28;20384;-65
2021/12/29 12:40:23;;;;;;;;;;;15.00;99.90;;;;;;5067261;28;19980;-65
2021/12/29 12:43:03;;;;;;;;;;;15.00;99.90;;;;;;5066825;28;20458;-66
2021/12/29 12:45:33;;;;;;;;;;;15.10;99.90;;;;;;5067002;28;19927;-64
2021/12/29 12:48:08;;;;;;;;;;;15.10;99.90;;;;;;5066234;28;19956;-63
2021/12/29 12:50:34;;;;;;;;;;;15.10;99.90;;;;;;5066721;28;19921;-66
2021/12/29 12:53:00;;;;;;;;;;;15.10;99.90;;;;;;5068089;28;20022;-66
2021/12/29 12:55:26;;;;;;;;;;;15.10;99.90;;;;;;5067451;28;20008;-64
2021/12/29 12:57:52;;;;;;;;;;;15.10;99.90;;;;;;5067485;28;20385;-65
2021/12/29 13:00:19;;;;;;;;;;;15.10;99.90;;;;;;5067571;28;19913;-66
2021/12/29 13:02:48;;;;;;;;;;;15.10;99.90;;;;;;5067973;28;19912;-65
2021/12/29 13:05:16;;;;;;;;;;;15.10;99.90;;;;;;5063849;28;19935;-65
2021/12/29 13:07:43;;;;;;;;;;;15.10;99.90;;;;;;5067620;28;19924;-65
2021/12/29 13:10:10;;;;;;;;;;;15.20;99.90;;;;;;5067483;28;19966;-62
2021/12/29 13:12:37;;;;;;;;;;;15.20;99.90;;;;;;5067210;28;19962;-66
2021/12/29 13:15:06;;;;;;;;;;;15.10;99.90;;;;;;5068430;28;19916;-63
2021/12/29 13:17:32;;;;;;;;;;;15.20;99.90;;;;;;5066897;28;19919;-64
2021/12/29 13:19:57;;;;;;;;;;;15.20;99.90;;;;;;5067721;28;19924;-64
2021/12/29 13:22:27;;;;;;;;;;;15.20;99.90;;;;;;5046727;28;20335;-66
2021/12/29 13:24:53;;;;;;;;;;;15.30;99.90;;;;;;5067460;28;20019;-65
2021/12/29 13:27:21;;;;;;;;;;;15.30;99.90;;;;;;5067337;28;20003;-66
2021/12/29 13:29:57;;;;;;;;;;;15.30;99.90;;;;;;5067861;28;20285;-66
2021/12/29 13:32:23;;;;;;;;;;;15.30;99.90;;;;;;5067481;28;20011;-65
2021/12/29 13:34:57;;;;;;;;;;;15.40;99.90;;;;;;5067378;28;20436;-66
2021/12/29 13:37:23;;;;;;;;;;;15.40;99.90;;;;;;5067030;28;20008;-66
2021/12/29 13:39:52;;;;;;;;;;;15.40;99.90;;;;;;5067555;28;19999;-63
2021/12/29 13:42:18;;;;;;;;;;;15.40;99.90;;;;;;5067669;28;19912;-66
2021/12/29 13:44:43;;;;;;;;;;;15.40;99.90;;;;;;5068085;28;19935;-65
2021/12/29 13:47:09;;;;;;;;;;;15.40;99.90;;;;;;5070885;28;20385;-66
2021/12/29 13:49:34;;;;;;;;;;;15.40;99.90;;;;;;5071370;28;19921;-66
2021/12/29 13:52:00;;;;;;;;;;;15.40;99.90;;;;;;5071509;28;19919;-65
2021/12/29 13:54:27;;;;;;;;;;;15.40;99.90;;;;;;5070502;28;19912;-65
2021/12/29 13:56:53;;;;;;;;;;;15.50;99.90;;;;;;5071648;28;19912;-65
2021/12/29 13:59:20;;;;;;;;;;;15.40;99.90;;;;;;5070878;28;19992;-64
2021/12/29 14:01:51;;;;;;;;;;;15.40;99.90;;;;;;5070497;28;19970;-66
2021/12/29 14:04:18;;;;;;;;;;;15.30;99.90;;;;;;5070445;28;19955;-66
2021/12/29 14:06:44;;;;;;;;;;;15.30;99.90;;;;;;5070123;28;19924;-66
2021/12/29 14:09:11;;;;;;;;;;;15.30;99.90;;;;;;5071384;28;19912;-65
2021/12/29 14:11:36;;;;;;;;;;;15.30;99.90;;;;;;5069978;28;19924;-62
2021/12/29 14:14:04;;;;;;;;;;;15.30;99.90;;;;;;5070200;28;20286;-66
2021/12/29 14:16:32;;;;;;;;;;;15.30;99.90;;;;;;5070276;28;19920;-66
2021/12/29 14:18:57;;;;;;;;;;;15.30;99.90;;;;;;5045550;28;19951;-66
2021/12/29 14:21:26;;;;;;;;;;;15.30;99.90;;;;;;5070676;28;19955;-65
2021/12/29 14:23:57;;;;;;;;;;;15.30;99.90;;;;;;5070611;28;19920;-65